sensor_id;sensor_type;location;lat;lon;timestamp;pressure;altitude;pressure_sealevel;temperature;humidity
72560;BME280;62987;52.382;9.752;2024-03-23T00:52:56;100147.50;;;9.63;100.00
72560;BME280;62987;52.382;9.752;2024-03-23T00:55:24;100147.16;;;10.07;100.00
72560;BME280;62987;52.382;9.752;2024-03-23T00:57:50;100131.28;;;9.69;100.00
72560;BME280;62987;52.382;9.752;2024-03-23T01:00:18;100135.59;;;10.08;100.00
72560;BME280;62987;52.382;9.752;2024-03-23T01:02:47;100133.78;;;9.91;100.00
72560;BME280;62987;52.382;9.752;2024-03-23T01:05:14;100131.56;;;9.63;100.00
72560;BME280;62987;52.382;9.752;2024-03-23T01:07:40;100131.53;;;9.82;100.00
72560;BME280;62987;52.382;9.752;2024-03-23T01:10:09;100123.50;;;9.83;100.00
72560;BME280;62987;52.382;9.752;2024-03-23T01:12:36;100121.91;;;9.79;100.00
72560;BME280;62987;52.382;9.752;2024-03-23T01:15:04;100116.31;;;9.85;100.00
72560;BME280;62987;52.382;9.752;2024-03-23T01:17:30;100116.34;;;9.67;100.00
72560;BME280;62987;52.382;9.752;2024-03-23T01:19:57;100104.69;;;9.52;100.00
72560;BME280;62987;52.382;9.752;2024-03-23T01:22:24;100107.44;;;9.68;100.00
72560;BME280;62987;52.382;9.752;2024-03-23T01:24:51;100091.81;;;9.43;100.00
72560;BME280;62987;52.382;9.752;2024-03-23T01:27:19;100097.84;;;9.46;100.00
72560;BME280;62987;52.382;9.752;2024-03-23T01:29:46;100088.09;;;9.28;100.00
72560;BME280;62987;52.382;9.752;2024-03-23T01:32:13;100090.69;;;9.30;100.00
72560;BME280;62987;52.382;9.752;2024-03-23T01:34:40;100089.97;;;9.07;100.00
72560;BME280;62987;52.382;9.752;2024-03-23T01:37:07;100086.66;;;9.21;100.00
72560;BME280;62987;52.382;9.752;2024-03-23T01:39:34;100078.19;;;8.94;100.00
72560;BME280;62987;52.382;9.752;2024-03-23T01:42:00;100081.00;;;9.29;100.00
72560;BME280;62987;52.382;9.752;2024-03-23T01:44:29;100068.75;;;9.07;100.00
72560;BME280;62987;52.382;9.752;2024-03-23T01:46:56;100076.91;;;9.21;100.00
72560;BME280;62987;52.382;9.752;2024-03-23T01:49:24;100077.97;;;9.17;100.00
72560;BME280;62987;52.382;9.752;2024-03-23T01:51:50;100088.94;;;9.29;100.00
72560;BME280;62987;52.382;9.752;2024-03-23T01:54:18;100076.19;;;9.18;100.00
72560;BME280;62987;52.382;9.752;2024-03-23T01:56:45;100069.16;;;9.36;100.00
72560;BME280;62987;52.382;9.752;2024-03-23T01:59:12;100073.59;;;9.54;100.00
72560;BME280;62987;52.382;9.752;2024-03-23T02:01:40;100069.16;;;9.17;100.00
72560;BME280;62987;52.382;9.752;2024-03-23T02:04:08;100073.31;;;9.04;100.00
72560;BME280;62987;52.382;9.752;2024-03-23T02:06:35;100070.41;;;8.90;100.00
72560;BME280;62987;52.382;9.752;2024-03-23T02:09:03;100061.25;;;9.15;100.00
72560;BME280;62987;52.382;9.752;2024-03-23T02:11:29;100063.44;;;9.07;100.00
72560;BME280;62987;52.382;9.752;2024-03-23T02:13:57;100054.16;;;8.97;100.00
72560;BME280;62987;52.382;9.752;2024-03-23T02:16:24;100052.97;;;9.04;100.00
72560;BME280;62987;52.382;9.752;2024-03-23T02:18:52;100052.91;;;9.06;100.00
72560;BME280;62987;52.382;9.752;2024-03-23T02:21:19;100047.94;;;8.98;100.00
72560;BME280;62987;52.382;9.752;2024-03-23T02:23:47;100044.19;;;9.21;100.00
72560;BME280;62987;52.382;9.752;2024-03-23T02:26:14;100051.81;;;9.10;100.00
72560;BME280;62987;52.382;9.752;2024-03-23T02:28:42;100040.22;;;9.12;100.00
72560;BME280;62987;52.382;9.752;2024-03-23T02:31:09;100027.34;;;9.03;100.00
72560;BME280;62987;52.382;9.752;2024-03-23T02:33:36;100024.19;;;9.51;100.00
72560;BME280;62987;52.382;9.752;2024-03-23T02:36:04;100024.88;;;9.55;100.00
72560;BME280;62987;52.382;9.752;2024-03-23T02:38:31;100020.91;;;9.63;100.00
72560;BME280;62987;52.382;9.752;2024-03-23T02:41:03;100018.72;;;9.36;100.00
72560;BME280;62987;52.382;9.752;2024-03-23T02:43:30;100014.38;;;9.88;100.00
72560;BME280;62987;52.382;9.752;2024-03-23T02:45:57;100019.88;;;9.85;100.00
72560;BME280;62987;52.382;9.752;2024-03-23T02:48:24;100009.69;;;9.93;100.00
72560;BME280;62987;52.382;9.752;2024-03-23T02:50:51;100007.09;;;9.74;100.00
72560;BME280;62987;52.382;9.752;2024-03-23T02:53:20;99991.53;;;9.49;100.00
72560;BME280;62987;52.382;9.752;2024-03-23T02:55:46;99991.78;;;9.62;100.00
72560;BME280;62987;52.382;9.752;2024-03-23T02:58:15;99992.94;;;9.56;100.00
72560;BME280;62987;52.382;9.752;2024-03-23T03:00:41;99990.84;;;9.27;100.00
72560;BME280;62987;52.382;9.752;2024-03-23T03:03:09;99993.66;;;9.24;100.00
72560;BME280;62987;52.382;9.752;2024-03-23T03:05:35;99998.44;;;9.35;100.00
72560;BME280;62987;52.382;9.752;2024-03-23T03:08:03;100005.63;;;9.14;100.00
72560;BME280;62987;52.382;9.752;2024-03-23T03:10:29;99997.78;;;8.94;100.00
72560;BME280;62987;52.382;9.752;2024-03-23T03:12:57;99993.31;;;9.13;100.00
72560;BME280;62987;52.382;9.752;2024-03-23T03:15:25;99991.66;;;8.92;100.00
72560;BME280;62987;52.382;9.752;2024-03-23T03:17:52;99986.28;;;9.12;100.00
72560;BME280;62987;52.382;9.752;2024-03-23T03:20:18;99982.97;;;9.26;100.00
72560;BME280;62987;52.382;9.752;2024-03-23T03:22:47;99977.16;;;9.17;100.00
72560;BME280;62987;52.382;9.752;2024-03-23T03:25:14;99987.19;;;9.30;100.00
72560;BME280;62987;52.382;9.752;2024-03-23T03:27:42;99987.47;;;9.23;100.00
72560;BME280;62987;52.382;9.752;2024-03-23T03:30:09;99976.06;;;9.21;100.00
72560;BME280;62987;52.382;9.752;2024-03-23T03:32:38;99974.75;;;9.49;100.00
72560;BME280;62987;52.382;9.752;2024-03-23T03:35:05;99980.91;;;9.49;100.00
72560;BME280;62987;52.382;9.752;2024-03-23T03:37:32;99986.69;;;9.21;100.00
72560;BME280;62987;52.382;9.752;2024-03-23T03:39:58;99988.31;;;9.43;100.00
72560;BME280;62987;52.382;9.752;2024-03-23T03:42:25;99979.16;;;9.31;100.00
72560;BME280;62987;52.382;9.752;2024-03-23T03:44:52;99972.28;;;9.08;100.00
72560;BME280;62987;52.382;9.752;2024-03-23T03:47:20;99978.91;;;9.18;100.00
72560;BME280;62987;52.382;9.752;2024-03-23T03:49:48;99979.03;;;9.15;100.00
72560;BME280;62987;52.382;9.752;2024-03-23T03:52:16;99975.41;;;8.99;100.00
72560;BME280;62987;52.382;9.752;2024-03-23T03:54:42;99977.25;;;9.16;100.00
72560;BME280;62987;52.382;9.752;2024-03-23T03:57:09;99969.34;;;9.14;100.00
72560;BME280;62987;52.382;9.752;2024-03-23T03:59:36;99962.78;;;9.04;100.00
72560;BME280;62987;52.382;9.752;2024-03-23T04:02:03;99964.34;;;9.08;100.00
72560;BME280;62987;52.382;9.752;2024-03-23T04:04:30;99972.38;;;9.26;100.00
72560;BME280;62987;52.382;9.752;2024-03-23T04:06:59;99979.91;;;8.97;100.00
72560;BME280;62987;52.382;9.752;2024-03-23T04:09:26;99973.09;;;9.10;100.00
72560;BME280;62987;52.382;9.752;2024-03-23T04:11:53;99962.47;;;9.10;100.00
72560;BME280;62987;52.382;9.752;2024-03-23T04:14:20;99965.75;;;9.15;100.00
72560;BME280;62987;52.382;9.752;2024-03-23T04:16:47;99963.28;;;8.94;100.00
72560;BME280;62987;52.382;9.752;2024-03-23T04:19:13;99958.19;;;8.89;100.00
72560;BME280;62987;52.382;9.752;2024-03-23T04:21:41;99951.94;;;9.09;100.00
72560;BME280;62987;52.382;9.752;2024-03-23T04:24:09;99954.03;;;9.02;100.00
72560;BME280;62987;52.382;9.752;2024-03-23T04:26:40;99948.00;;;9.17;100.00
72560;BME280;62987;52.382;9.752;2024-03-23T04:29:07;99952.19;;;8.86;100.00
72560;BME280;62987;52.382;9.752;2024-03-23T04:31:34;99935.81;;;8.76;100.00
72560;BME280;62987;52.382;9.752;2024-03-23T04:34:01;99935.81;;;8.76;100.00
72560;BME280;62987;52.382;9.752;2024-03-23T04:36:28;99937.22;;;8.66;100.00
72560;BME280;62987;52.382;9.752;2024-03-23T04:38:55;99941.00;;;8.79;100.00
72560;BME280;62987;52.382;9.752;2024-03-23T04:41:23;99934.13;;;8.75;100.00
72560;BME280;62987;52.382;9.752;2024-03-23T04:43:51;99936.41;;;8.82;100.00
72560;BME280;62987;52.382;9.752;2024-03-23T04:46:19;99925.69;;;8.67;100.00
72560;BME280;62987;52.382;9.752;2024-03-23T04:48:46;99944.28;;;8.84;100.00
72560;BME280;62987;52.382;9.752;2024-03-23T04:51:20;99926.38;;;8.89;100.00
72560;BME280;62987;52.382;9.752;2024-03-23T04:53:48;99931.25;;;8.79;100.00
72560;BME280;62987;52.382;9.752;2024-03-23T04:56:15;99941.69;;;8.82;100.00
72560;BME280;62987;52.382;9.752;2024-03-23T04:58:44;99942.28;;;8.89;100.00
72560;BME280;62987;52.382;9.752;2024-03-23T05:01:11;99932.81;;;8.65;100.00
72560;BME280;62987;52.382;9.752;2024-03-23T05:03:39;99949.44;;;8.50;100.00
72560;BME280;62987;52.382;9.752;2024-03-23T05:06:05;99938.34;;;8.41;100.00
72560;BME280;62987;52.382;9.752;2024-03-23T05:08:33;99922.75;;;8.54;100.00
72560;BME280;62987;52.382;9.752;2024-03-23T05:10:59;99923.09;;;8.47;100.00
72560;BME280;62987;52.382;9.752;2024-03-23T05:13:26;99922.22;;;8.46;100.00
72560;BME280;62987;52.382;9.752;2024-03-23T05:15:55;99915.94;;;8.49;100.00
72560;BME280;62987;52.382;9.752;2024-03-23T05:18:22;99915.06;;;8.48;100.00
72560;BME280;62987;52.382;9.752;2024-03-23T05:20:48;99909.97;;;8.23;100.00
72560;BME280;62987;52.382;9.752;2024-03-23T05:23:16;99909.72;;;8.29;100.00
72560;BME280;62987;52.382;9.752;2024-03-23T05:25:45;99910.81;;;8.05;100.00
72560;BME280;62987;52.382;9.752;2024-03-23T05:28:12;99913.84;;;8.16;100.00
72560;BME280;62987;52.382;9.752;2024-03-23T05:30:38;99909.47;;;8.35;100.00
72560;BME280;62987;52.382;9.752;2024-03-23T05:33:07;99911.97;;;8.18;100.00
72560;BME280;62987;52.382;9.752;2024-03-23T05:35:34;99905.66;;;8.02;100.00
72560;BME280;62987;52.382;9.752;2024-03-23T05:38:01;99912.19;;;8.34;100.00
72560;BME280;62987;52.382;9.752;2024-03-23T05:40:27;99897.09;;;8.16;100.00
72560;BME280;62987;52.382;9.752;2024-03-23T05:42:55;99911.44;;;8.30;100.00
72560;BME280;62987;52.382;9.752;2024-03-23T05:45:24;99908.41;;;8.19;100.00
72560;BME280;62987;52.382;9.752;2024-03-23T05:47:51;99909.28;;;8.20;100.00
72560;BME280;62987;52.382;9.752;2024-03-23T05:50:19;99906.03;;;8.33;100.00
72560;BME280;62987;52.382;9.752;2024-03-23T05:52:46;99896.59;;;8.47;100.00
72560;BME280;62987;52.382;9.752;2024-03-23T05:55:13;99888.13;;;8.38;100.00
72560;BME280;62987;52.382;9.752;2024-03-23T05:57:40;99888.41;;;8.32;100.00
72560;BME280;62987;52.382;9.752;2024-03-23T06:00:07;99886.00;;;8.26;100.00
72560;BME280;62987;52.382;9.752;2024-03-23T06:02:42;99893.94;;;8.47;100.00
72560;BME280;62987;52.382;9.752;2024-03-23T06:05:10;99893.78;;;8.50;100.00
72560;BME280;62987;52.382;9.752;2024-03-23T06:07:39;99887.69;;;8.29;100.00
72560;BME280;62987;52.382;9.752;2024-03-23T06:10:06;99895.69;;;8.27;100.00
72560;BME280;62987;52.382;9.752;2024-03-23T06:12:34;99894.47;;;7.95;100.00
72560;BME280;62987;52.382;9.752;2024-03-23T06:15:00;99897.81;;;8.19;100.00
72560;BME280;62987;52.382;9.752;2024-03-23T06:17:28;99893.03;;;8.27;100.00
72560;BME280;62987;52.382;9.752;2024-03-23T06:19:54;99893.19;;;8.43;100.00
72560;BME280;62987;52.382;9.752;2024-03-23T06:22:21;99892.00;;;8.50;100.00
72560;BME280;62987;52.382;9.752;2024-03-23T06:24:50;99887.84;;;8.45;100.00
72560;BME280;62987;52.382;9.752;2024-03-23T06:27:17;99888.34;;;8.34;100.00
72560;BME280;62987;52.382;9.752;2024-03-23T06:29:44;99882.19;;;8.33;100.00
72560;BME280;62987;52.382;9.752;2024-03-23T06:32:11;99879.88;;;8.45;100.00
72560;BME280;62987;52.382;9.752;2024-03-23T06:34:37;99888.75;;;8.43;100.00
72560;BME280;62987;52.382;9.752;2024-03-23T06:37:05;99899.06;;;8.50;100.00
72560;BME280;62987;52.382;9.752;2024-03-23T06:39:31;99895.16;;;8.19;100.00
72560;BME280;62987;52.382;9.752;2024-03-23T06:42:00;99901.03;;;8.46;100.00
72560;BME280;62987;52.382;9.752;2024-03-23T06:44:27;99906.75;;;8.37;100.00
72560;BME280;62987;52.382;9.752;2024-03-23T06:46:54;99912.63;;;8.43;100.00
72560;BME280;62987;52.382;9.752;2024-03-23T06:49:21;99904.25;;;8.53;100.00
72560;BME280;62987;52.382;9.752;2024-03-23T06:51:48;99905.75;;;8.58;100.00
72560;BME280;62987;52.382;9.752;2024-03-23T06:54:15;99898.03;;;8.54;100.00
72560;BME280;62987;52.382;9.752;2024-03-23T06:56:44;99898.00;;;8.91;100.00
72560;BME280;62987;52.382;9.752;2024-03-23T06:59:11;99894.06;;;8.81;100.00
72560;BME280;62987;52.382;9.752;2024-03-23T07:01:39;99903.03;;;8.60;100.00
72560;BME280;62987;52.382;9.752;2024-03-23T07:04:05;99895.88;;;8.62;100.00
72560;BME280;62987;52.382;9.752;2024-03-23T07:06:33;99900.44;;;8.77;100.00
72560;BME280;62987;52.382;9.752;2024-03-23T07:08:59;99897.72;;;8.78;100.00
72560;BME280;62987;52.382;9.752;2024-03-23T07:11:26;99903.72;;;8.82;100.00
72560;BME280;62987;52.382;9.752;2024-03-23T07:13:53;99899.75;;;8.73;100.00
72560;BME280;62987;52.382;9.752;2024-03-23T07:16:23;99889.25;;;8.70;100.00
72560;BME280;62987;52.382;9.752;2024-03-23T07:18:50;99892.34;;;8.80;100.00
72560;BME280;62987;52.382;9.752;2024-03-23T07:21:17;99894.75;;;9.03;100.00
72560;BME280;62987;52.382;9.752;2024-03-23T07:23:43;99901.56;;;8.90;100.00
72560;BME280;62987;52.382;9.752;2024-03-23T07:26:11;99907.00;;;9.06;100.00
72560;BME280;62987;52.382;9.752;2024-03-23T07:28:38;99909.53;;;9.26;100.00
72560;BME280;62987;52.382;9.752;2024-03-23T07:31:10;99906.97;;;9.42;100.00
72560;BME280;62987;52.382;9.752;2024-03-23T07:33:42;99906.28;;;9.02;100.00
72560;BME280;62987;52.382;9.752;2024-03-23T07:36:10;99910.69;;;9.20;100.00
72560;BME280;62987;52.382;9.752;2024-03-23T07:38:36;99913.16;;;9.06;100.00
72560;BME280;62987;52.382;9.752;2024-03-23T07:41:04;99906.66;;;9.48;100.00
72560;BME280;62987;52.382;9.752;2024-03-23T07:43:31;99906.22;;;9.21;100.00
72560;BME280;62987;52.382;9.752;2024-03-23T07:45:59;99906.84;;;9.45;100.00
72560;BME280;62987;52.382;9.752;2024-03-23T07:48:28;99908.44;;;9.30;100.00
72560;BME280;62987;52.382;9.752;2024-03-23T07:51:00;99902.00;;;9.70;100.00
72560;BME280;62987;52.382;9.752;2024-03-23T07:53:28;99910.75;;;9.72;100.00
72560;BME280;62987;52.382;9.752;2024-03-23T07:55:56;99912.59;;;9.53;100.00
72560;BME280;62987;52.382;9.752;2024-03-23T07:58:24;99905.41;;;9.55;100.00
72560;BME280;62987;52.382;9.752;2024-03-23T08:00:52;99904.94;;;9.30;100.00
72560;BME280;62987;52.382;9.752;2024-03-23T08:03:19;99893.75;;;9.23;100.00
72560;BME280;62987;52.382;9.752;2024-03-23T08:05:46;99896.41;;;9.23;100.00
72560;BME280;62987;52.382;9.752;2024-03-23T08:08:15;99898.38;;;9.54;100.00
72560;BME280;62987;52.382;9.752;2024-03-23T08:10:48;99907.88;;;9.23;100.00
72560;BME280;62987;52.382;9.752;2024-03-23T08:13:16;99905.16;;;9.59;100.00
72560;BME280;62987;52.382;9.752;2024-03-23T08:15:42;99900.56;;;9.80;100.00
72560;BME280;62987;52.382;9.752;2024-03-23T08:18:10;99900.38;;;10.00;100.00
72560;BME280;62987;52.382;9.752;2024-03-23T08:20:36;99895.28;;;10.13;100.00
72560;BME280;62987;52.382;9.752;2024-03-23T08:23:05;99888.97;;;10.49;100.00
72560;BME280;62987;52.382;9.752;2024-03-23T08:25:34;99885.34;;;11.42;100.00
72560;BME280;62987;52.382;9.752;2024-03-23T08:28:02;99884.22;;;12.34;100.00
72560;BME280;62987;52.382;9.752;2024-03-23T08:30:28;99889.44;;;12.50;100.00
72560;BME280;62987;52.382;9.752;2024-03-23T08:32:56;99890.66;;;13.41;100.00
72560;BME280;62987;52.382;9.752;2024-03-23T08:35:22;99901.16;;;12.19;100.00
72560;BME280;62987;52.382;9.752;2024-03-23T08:37:49;99897.38;;;11.04;100.00
72560;BME280;62987;52.382;9.752;2024-03-23T08:40:16;99894.28;;;13.79;100.00
72560;BME280;62987;52.382;9.752;2024-03-23T08:42:45;99897.66;;;13.29;100.00
72560;BME280;62987;52.382;9.752;2024-03-23T08:45:11;99897.19;;;13.23;100.00
72560;BME280;62987;52.382;9.752;2024-03-23T08:47:38;99890.63;;;11.28;100.00
72560;BME280;62987;52.382;9.752;2024-03-23T08:50:05;99895.00;;;12.88;100.00
72560;BME280;62987;52.382;9.752;2024-03-23T08:52:33;99894.00;;;13.57;100.00
72560;BME280;62987;52.382;9.752;2024-03-23T08:54:59;99887.25;;;12.57;100.00
72560;BME280;62987;52.382;9.752;2024-03-23T08:57:27;99895.16;;;11.72;100.00
72560;BME280;62987;52.382;9.752;2024-03-23T08:59:55;99890.94;;;11.53;100.00
72560;BME280;62987;52.382;9.752;2024-03-23T09:02:22;99891.88;;;11.52;100.00
72560;BME280;62987;52.382;9.752;2024-03-23T09:04:48;99897.50;;;12.06;100.00
72560;BME280;62987;52.382;9.752;2024-03-23T09:07:16;99881.84;;;14.67;100.00
72560;BME280;62987;52.382;9.752;2024-03-23T09:09:42;99898.59;;;14.45;100.00
72560;BME280;62987;52.382;9.752;2024-03-23T09:12:10;99904.81;;;13.68;100.00
72560;BME280;62987;52.382;9.752;2024-03-23T09:14:36;99899.78;;;13.10;100.00
72560;BME280;62987;52.382;9.752;2024-03-23T09:17:05;99891.28;;;13.84;100.00
72560;BME280;62987;52.382;9.752;2024-03-23T09:19:31;99904.47;;;13.20;100.00
72560;BME280;62987;52.382;9.752;2024-03-23T09:21:59;99891.50;;;17.65;95.51
72560;BME280;62987;52.382;9.752;2024-03-23T09:24:25;99883.25;;;19.59;79.49
72560;BME280;62987;52.382;9.752;2024-03-23T09:26:53;99886.97;;;15.78;94.18
72560;BME280;62987;52.382;9.752;2024-03-23T09:29:19;99899.03;;;14.52;99.63
72560;BME280;62987;52.382;9.752;2024-03-23T09:31:46;99886.00;;;15.90;100.00
72560;BME280;62987;52.382;9.752;2024-03-23T09:34:16;99880.00;;;15.51;100.00
72560;BME280;62987;52.382;9.752;2024-03-23T09:36:43;99884.34;;;12.88;100.00
72560;BME280;62987;52.382;9.752;2024-03-23T09:39:10;99883.91;;;12.39;100.00
72560;BME280;62987;52.382;9.752;2024-03-23T09:41:37;99885.53;;;11.85;100.00
72560;BME280;62987;52.382;9.752;2024-03-23T09:44:05;99885.31;;;11.28;100.00
72560;BME280;62987;52.382;9.752;2024-03-23T09:46:32;99891.25;;;12.64;100.00
72560;BME280;62987;52.382;9.752;2024-03-23T09:49:01;99872.16;;;19.90;65.10
72560;BME280;62987;52.382;9.752;2024-03-23T09:51:31;99860.72;;;20.99;54.90
72560;BME280;62987;52.382;9.752;2024-03-23T09:53:58;99857.19;;;21.87;48.70
72560;BME280;62987;52.382;9.752;2024-03-23T09:56:25;99856.97;;;22.58;42.95
72560;BME280;62987;52.382;9.752;2024-03-23T09:58:51;99849.19;;;23.80;39.08
72560;BME280;62987;52.382;9.752;2024-03-23T10:01:18;99859.41;;;20.76;45.41
72560;BME280;62987;52.382;9.752;2024-03-23T10:03:45;99865.53;;;18.87;51.11
72560;BME280;62987;52.382;9.752;2024-03-23T10:06:12;99876.50;;;15.27;69.40
72560;BME280;62987;52.382;9.752;2024-03-23T10:08:40;99878.97;;;13.29;87.25
72560;BME280;62987;52.382;9.752;2024-03-23T10:11:15;99874.13;;;12.95;94.58
72560;BME280;62987;52.382;9.752;2024-03-23T10:13:42;99883.94;;;14.13;90.10
72560;BME280;62987;52.382;9.752;2024-03-23T10:16:10;99879.72;;;14.59;80.56
72560;BME280;62987;52.382;9.752;2024-03-23T10:18:39;99869.25;;;16.55;66.13
72560;BME280;62987;52.382;9.752;2024-03-23T10:21:08;99851.47;;;18.44;47.79
72560;BME280;62987;52.382;9.752;2024-03-23T10:23:36;99843.81;;;22.38;43.25
72560;BME280;62987;52.382;9.752;2024-03-23T10:26:16;99850.56;;;16.53;51.72
72560;BME280;62987;52.382;9.752;2024-03-23T10:28:51;99860.00;;;17.45;54.93
72560;BME280;62987;52.382;9.752;2024-03-23T10:31:19;99859.25;;;16.68;53.58
72560;BME280;62987;52.382;9.752;2024-03-23T10:33:46;99849.41;;;18.97;51.97
72560;BME280;62987;52.382;9.752;2024-03-23T10:36:14;99844.91;;;19.16;46.21
72560;BME280;62987;52.382;9.752;2024-03-23T10:38:40;99856.97;;;18.42;45.36
72560;BME280;62987;52.382;9.752;2024-03-23T10:41:09;99853.66;;;18.29;46.06
72560;BME280;62987;52.382;9.752;2024-03-23T10:43:38;99870.22;;;16.31;50.08
72560;BME280;62987;52.382;9.752;2024-03-23T10:46:06;99865.81;;;14.54;60.26
72560;BME280;62987;52.382;9.752;2024-03-23T10:48:33;99913.91;;;13.66;74.94
72560;BME280;62987;52.382;9.752;2024-03-23T10:51:00;99903.13;;;13.28;87.40
72560;BME280;62987;52.382;9.752;2024-03-23T10:53:28;99879.78;;;13.03;92.97
72560;BME280;62987;52.382;9.752;2024-03-23T10:55:56;99915.81;;;12.69;100.00
72560;BME280;62987;52.382;9.752;2024-03-23T10:58:26;99893.59;;;11.83;100.00
72560;BME280;62987;52.382;9.752;2024-03-23T11:00:56;99919.19;;;10.95;100.00
72560;BME280;62987;52.382;9.752;2024-03-23T11:03:32;99927.38;;;10.59;100.00
72560;BME280;62987;52.382;9.752;2024-03-23T11:06:01;99907.91;;;10.58;100.00
72560;BME280;62987;52.382;9.752;2024-03-23T11:08:32;99879.75;;;11.17;100.00
72560;BME280;62987;52.382;9.752;2024-03-23T11:11:12;99889.91;;;12.00;100.00
72560;BME280;62987;52.382;9.752;2024-03-23T11:13:39;99880.47;;;15.45;100.00
72560;BME280;62987;52.382;9.752;2024-03-23T11:16:14;99886.06;;;14.95;100.00
72560;BME280;62987;52.382;9.752;2024-03-23T11:18:41;99909.06;;;12.49;100.00
72560;BME280;62987;52.382;9.752;2024-03-23T11:21:10;99920.38;;;10.73;100.00
72560;BME280;62987;52.382;9.752;2024-03-23T11:23:36;99906.16;;;10.26;100.00
72560;BME280;62987;52.382;9.752;2024-03-23T11:26:07;99913.94;;;10.12;100.00
72560;BME280;62987;52.382;9.752;2024-03-23T11:28:33;99899.38;;;9.86;100.00
72560;BME280;62987;52.382;9.752;2024-03-23T11:31:01;99900.09;;;9.89;100.00
72560;BME280;62987;52.382;9.752;2024-03-23T11:33:30;99896.78;;;10.67;100.00
72560;BME280;62987;52.382;9.752;2024-03-23T11:35:57;99893.59;;;13.76;100.00
72560;BME280;62987;52.382;9.752;2024-03-23T11:38:24;99882.25;;;15.57;100.00
72560;BME280;62987;52.382;9.752;2024-03-23T11:40:51;99882.66;;;16.44;96.93
72560;BME280;62987;52.382;9.752;2024-03-23T11:43:19;99873.59;;;18.77;83.99
72560;BME280;62987;52.382;9.752;2024-03-23T11:45:48;99879.44;;;17.16;91.35
72560;BME280;62987;52.382;9.752;2024-03-23T11:48:18;99902.34;;;14.92;100.00
72560;BME280;62987;52.382;9.752;2024-03-23T11:50:49;99917.53;;;12.13;100.00
72560;BME280;62987;52.382;9.752;2024-03-23T11:53:16;99921.47;;;11.62;100.00
72560;BME280;62987;52.382;9.752;2024-03-23T11:55:45;99929.13;;;10.75;100.00
72560;BME280;62987;52.382;9.752;2024-03-23T11:58:13;99923.06;;;12.10;100.00
72560;BME280;62987;52.382;9.752;2024-03-23T12:00:41;99910.31;;;13.92;100.00
72560;BME280;62987;52.382;9.752;2024-03-23T12:03:07;99902.31;;;12.29;100.00
72560;BME280;62987;52.382;9.752;2024-03-23T12:05:37;99898.44;;;11.77;100.00
72560;BME280;62987;52.382;9.752;2024-03-23T12:08:20;99886.94;;;11.60;100.00
72560;BME280;62987;52.382;9.752;2024-03-23T12:10:50;99892.13;;;11.48;100.00
72560;BME280;62987;52.382;9.752;2024-03-23T12:13:18;99894.19;;;11.58;100.00
72560;BME280;62987;52.382;9.752;2024-03-23T12:15:46;99894.28;;;11.41;100.00
72560;BME280;62987;52.382;9.752;2024-03-23T12:18:13;99888.09;;;11.41;100.00
72560;BME280;62987;52.382;9.752;2024-03-23T12:20:40;99883.06;;;11.36;100.00
72560;BME280;62987;52.382;9.752;2024-03-23T12:23:08;99873.72;;;11.59;100.00
72560;BME280;62987;52.382;9.752;2024-03-23T12:25:39;99865.88;;;15.84;100.00
72560;BME280;62987;52.382;9.752;2024-03-23T12:28:07;99874.91;;;14.64;100.00
72560;BME280;62987;52.382;9.752;2024-03-23T12:30:39;99870.94;;;13.02;100.00
72560;BME280;62987;52.382;9.752;2024-03-23T12:33:06;99880.19;;;11.85;100.00
72560;BME280;62987;52.382;9.752;2024-03-23T12:35:33;99893.75;;;12.24;100.00
72560;BME280;62987;52.382;9.752;2024-03-23T12:38:01;99892.41;;;10.98;100.00
72560;BME280;62987;52.382;9.752;2024-03-23T12:40:27;99890.84;;;10.78;100.00
72560;BME280;62987;52.382;9.752;2024-03-23T12:42:56;99900.09;;;9.89;100.00
72560;BME280;62987;52.382;9.752;2024-03-23T12:45:22;99900.56;;;9.80;100.00
72560;BME280;62987;52.382;9.752;2024-03-23T12:47:49;99895.44;;;10.27;100.00
72560;BME280;62987;52.382;9.752;2024-03-23T12:50:18;99905.59;;;10.52;100.00
72560;BME280;62987;52.382;9.752;2024-03-23T12:52:46;99914.19;;;10.07;100.00
72560;BME280;62987;52.382;9.752;2024-03-23T12:55:12;99898.69;;;10.17;100.00
72560;BME280;62987;52.382;9.752;2024-03-23T12:57:39;99894.47;;;9.95;100.00
72560;BME280;62987;52.382;9.752;2024-03-23T13:00:09;99894.47;;;9.61;100.00
72560;BME280;62987;52.382;9.752;2024-03-23T13:02:37;99880.56;;;9.90;100.00
72560;BME280;62987;52.382;9.752;2024-03-23T13:05:05;99881.97;;;9.97;100.00
72560;BME280;62987;52.382;9.752;2024-03-23T13:07:33;99886.34;;;10.31;100.00
72560;BME280;62987;52.382;9.752;2024-03-23T13:10:01;99886.44;;;10.13;100.00
72560;BME280;62987;52.382;9.752;2024-03-23T13:12:29;99886.53;;;10.11;100.00
72560;BME280;62987;52.382;9.752;2024-03-23T13:14:56;99883.50;;;10.19;100.00
72560;BME280;62987;52.382;9.752;2024-03-23T13:17:25;99873.81;;;11.28;100.00
72560;BME280;62987;52.382;9.752;2024-03-23T13:19:53;99864.31;;;11.97;100.00
72560;BME280;62987;52.382;9.752;2024-03-23T13:22:21;99857.44;;;12.50;100.00
72560;BME280;62987;52.382;9.752;2024-03-23T13:24:47;99862.50;;;12.40;98.29
72560;BME280;62987;52.382;9.752;2024-03-23T13:27:15;99861.88;;;13.96;91.44
72560;BME280;62987;52.382;9.752;2024-03-23T13:29:41;99853.13;;;15.05;87.94
72560;BME280;62987;52.382;9.752;2024-03-23T13:32:08;99843.31;;;15.41;79.54
72560;BME280;62987;52.382;9.752;2024-03-23T13:34:36;99854.44;;;15.24;77.12
72560;BME280;62987;52.382;9.752;2024-03-23T13:37:04;99851.06;;;14.49;86.10
72560;BME280;62987;52.382;9.752;2024-03-23T13:39:30;99847.00;;;14.43;85.39
72560;BME280;62987;52.382;9.752;2024-03-23T13:41:57;99858.94;;;13.49;82.00
72560;BME280;62987;52.382;9.752;2024-03-23T13:44:24;99845.47;;;14.64;81.46
72560;BME280;62987;52.382;9.752;2024-03-23T13:46:52;99852.13;;;14.21;82.99
72560;BME280;62987;52.382;9.752;2024-03-23T13:49:24;99842.69;;;14.53;82.36